Time;durP1;ratioP1;P1;durP2;ratioP2;P2;SDS_P1;SDS_P2;PMS_P1;PMS_P2;Temp;Humidity;BMP_temperature;BMP_pressure;BME280_temperature;BME280_humidity;BME280_pressure;Samples;Min_cycle;Max_cycle;Signal;HPM_P1;HPM_P2
2021/08/06 00:02:15;;;;;;;2.08;1.10;;;;;;;22.35;44.09;100477.23;1742124;81;21252;-67
2021/08/06 00:04:49;;;;;;;4.45;1.10;;;;;;;22.32;44.27;100480.30;1729177;83;21240;-66
2021/08/06 00:07:23;;;;;;;6.12;1.20;;;;;;;22.29;44.57;100488.20;1733957;81;21271;-67
2021/08/06 00:09:56;;;;;;;2.37;1.20;;;;;;;22.26;44.60;100477.14;1745475;82;21726;-67
2021/08/06 00:12:29;;;;;;;2.87;1.30;;;;;;;22.25;44.71;100487.48;1738747;81;21192;-68
2021/08/06 00:15:02;;;;;;;2.72;1.47;;;;;;;22.24;44.53;100481.33;1728251;83;21336;-67
2021/08/06 00:17:35;;;;;;;4.00;1.45;;;;;;;22.23;44.68;100483.70;1727508;81;21323;-66
2021/08/06 00:20:11;;;;;;;1.98;1.05;;;;;;;22.25;44.32;100488.31;1730170;82;21256;-66
2021/08/06 00:22:44;;;;;;;4.30;1.32;;;;;;;22.28;44.41;100483.08;1727060;83;21299;-66
2021/08/06 00:25:17;;;;;;;4.60;1.30;;;;;;;22.28;44.39;100486.58;1727728;82;21288;-67
2021/08/06 00:27:50;;;;;;;7.53;1.55;;;;;;;22.26;44.36;100478.47;1730966;81;21335;-66
2021/08/06 00:30:25;;;;;;;1.50;1.05;;;;;;;22.25;44.37;100476.81;1735761;81;21289;-66
2021/08/06 00:32:59;;;;;;;1.77;1.20;;;;;;;22.23;44.42;100486.88;1730741;82;21189;-67
2021/08/06 00:35:33;;;;;;;3.22;1.25;;;;;;;22.19;44.52;100476.32;1727217;81;21276;-67
2021/08/06 00:38:07;;;;;;;2.42;1.30;;;;;;;22.14;44.59;100483.07;1726955;81;21333;-68
2021/08/06 00:40:42;;;;;;;1.92;0.95;;;;;;;22.12;44.59;100490.46;1728328;81;21312;-69
2021/08/06 00:43:17;;;;;;;2.98;1.20;;;;;;;22.11;44.63;100492.81;1735164;82;21196;-65
2021/08/06 00:45:51;;;;;;;1.92;1.25;;;;;;;22.09;44.65;100487.41;1734779;82;21362;-65
2021/08/06 00:48:26;;;;;;;4.75;1.37;;;;;;;22.06;44.77;100476.63;1727581;81;21272;-68
2021/08/06 00:51:01;;;;;;;3.58;1.32;;;;;;;22.05;44.81;100480.31;1727430;82;21332;-66
2021/08/06 00:53:37;;;;;;;3.35;1.17;;;;;;;22.04;44.95;100477.32;1728116;82;21256;-65
2021/08/06 00:56:12;;;;;;;2.20;1.50;;;;;;;22.02;44.98;100474.55;1727909;83;21272;-65
2021/08/06 00:58:45;;;;;;;1.50;1.20;;;;;;;22.00;45.13;100463.28;1727813;83;21201;-65
2021/08/06 01:01:21;;;;;;;2.30;1.20;;;;;;;21.96;45.19;100467.38;1726234;81;21525;-67
2021/08/06 01:04:12;;;;;;;9.63;1.82;;;;;;;21.92;45.19;100467.50;1729301;81;21285;-65
2021/08/06 01:06:55;;;;;;;5.50;1.40;;;;;;;21.90;45.18;100461.02;1728675;82;21209;-65
2021/08/06 01:09:45;;;;;;;2.47;1.35;;;;;;;21.89;45.21;100462.56;1733588;81;21157;-68
2021/08/06 01:12:27;;;;;;;3.12;1.10;;;;;;;21.87;45.28;100457.95;1734520;81;21279;-68
2021/08/06 01:15:02;;;;;;;4.72;2.08;;;;;;;21.84;45.30;100448.99;1728456;81;21260;-65
2021/08/06 01:17:38;;;;;;;2.45;1.82;;;;;;;21.82;45.30;100441.72;1731401;82;21192;-67
2021/08/06 01:20:24;;;;;;;6.85;1.50;;;;;;;21.81;45.43;100442.22;1735416;81;21188;-67
2021/08/06 01:23:33;;;;;;;15.13;1.52;;;;;;;21.79;45.50;100444.78;1729603;81;21265;-66
2021/08/06 01:26:09;;;;;;;2.90;1.37;;;;;;;21.75;45.58;100445.72;1733806;81;21276;-68
2021/08/06 01:28:48;;;;;;;7.67;1.60;;;;;;;21.72;45.68;100458.62;1764002;81;21269;-67
2021/08/06 01:31:28;;;;;;;3.60;1.62;;;;;;;21.68;45.74;100459.55;1769978;80;21188;-65
2021/08/06 01:34:12;;;;;;;2.00;1.20;;;;;;;21.64;45.84;100455.62;1743623;81;22023;-67
2021/08/06 01:36:45;;;;;;;4.62;1.20;;;;;;;21.61;45.90;100456.05;1768376;80;21169;-67
2021/08/06 01:39:20;;;;;;;2.98;1.25;;;;;;;21.60;46.10;100464.23;1768611;80;21280;-67
2021/08/06 01:42:04;;;;;;;;;;;;;;;21.57;46.27;100466.78;1767678;81;21491;-67
2021/08/06 01:44:53;;;;;;;4.28;1.55;;;;;;;21.53;46.38;100470.88;1729673;83;20174;-67
2021/08/06 01:47:40;;;;;;;3.67;1.22;;;;;;;21.48;46.58;100464.00;1732555;81;21153;-67
2021/08/06 01:50:28;;;;;;;8.38;1.50;;;;;;;21.46;46.57;100458.89;1748679;81;21315;-68
2021/08/06 01:53:05;;;;;;;6.30;1.90;;;;;;;21.42;47.21;100462.95;1735243;81;21351;-68
2021/08/06 01:56:02;;;;;;;9.18;1.80;;;;;;;21.38;47.43;100461.73;1729716;81;21276;-66
2021/08/06 01:58:40;;;;;;;7.47;1.62;;;;;;;21.34;47.66;100467.66;1760172;81;21288;-67
2021/08/06 02:01:14;;;;;;;3.60;1.70;;;;;;;21.27;47.91;100466.81;1767468;81;21295;-67
2021/08/06 02:03:49;;;;;;;5.87;1.35;;;;;;;21.23;47.89;100470.91;1766621;80;21150;-67
2021/08/06 02:06:24;;;;;;;4.72;1.92;;;;;;;21.18;48.22;100470.18;1758896;81;21252;-68
2021/08/06 02:09:00;;;;;;;12.75;1.95;;;;;;;21.14;48.72;100468.09;1768164;81;21343;-67
2021/08/06 02:11:36;;;;;;;9.63;2.00;;;;;;;21.10;49.01;100465.02;1768689;81;21720;-67
2021/08/06 02:14:12;;;;;;;6.62;2.00;;;;;;;21.06;49.25;100463.78;1737719;82;21327;-67
2021/08/06 02:16:48;;;;;;;7.50;1.80;;;;;;;21.02;49.60;100465.65;1742463;81;21344;-68
2021/08/06 02:19:23;;;;;;;7.60;2.65;;;;;;;20.97;49.83;100464.91;1724946;82;21247;-67
2021/08/06 02:22:01;;;;;;;4.50;1.92;;;;;;;20.94;49.66;100464.50;1743863;81;21173;-68
2021/08/06 02:24:36;;;;;;;10.75;1.80;;;;;;;20.92;49.66;100468.67;1743743;81;21689;-68
2021/08/06 02:27:12;;;;;;;7.67;2.10;;;;;;;20.92;49.87;100469.21;1729364;81;21692;-67
2021/08/06 02:29:45;;;;;;;4.55;1.52;;;;;;;20.91;49.83;100463.56;1769653;81;21272;-66
2021/08/06 02:32:20;;;;;;;8.88;2.50;;;;;;;20.93;49.29;100466.84;1769246;80;21184;-65
2021/08/06 02:34:55;;;;;;;10.40;4.70;;;;;;;20.96;49.19;100470.45;1768664;81;21248;-66
2021/08/06 02:37:28;;;;;;;29.92;11.50;;;;;;;21.02;49.20;100474.46;1755676;81;21158;-66
2021/08/06 02:40:01;;;;;;;16.73;7.37;;;;;;;21.07;49.10;100476.55;1729235;81;21308;-68
2021/08/06 02:42:35;;;;;;;16.90;5.00;;;;;;;21.13;49.15;100474.45;1735136;81;21152;-69
2021/08/06 02:45:10;;;;;;;7.47;2.60;;;;;;;21.20;49.42;100472.63;1746303;81;21493;-69
2021/08/06 02:47:43;;;;;;;7.33;2.45;;;;;;;21.27;49.72;100476.14;1754817;81;21361;-68
2021/08/06 02:50:17;;;;;;;6.25;1.75;;;;;;;21.33;50.04;100481.48;1769097;81;21209;-68
2021/08/06 02:52:50;;;;;;;9.28;1.90;;;;;;;21.41;50.06;100486.64;1767880;80;21316;-69
2021/08/06 02:55:23;;;;;;;11.97;2.00;;;;;;;21.52;50.09;100497.73;1768776;81;21138;-65
2021/08/06 02:57:57;;;;;;;3.85;1.57;;;;;;;21.62;50.05;100492.82;1769733;81;21308;-64
2021/08/06 03:00:30;;;;;;;9.35;1.90;;;;;;;21.74;49.44;100491.20;1770622;81;21276;-65
2021/08/06 03:03:04;;;;;;;5.75;1.80;;;;;;;21.85;49.13;100491.45;1768403;81;21256;-66
2021/08/06 03:05:37;;;;;;;6.35;1.62;;;;;;;21.95;49.20;100485.72;1767093;81;21280;-66
2021/08/06 03:08:12;;;;;;;11.95;2.12;;;;;;;22.04;48.49;100481.86;1744818;81;21244;-66
2021/08/06 03:10:46;;;;;;;8.88;1.77;;;;;;;22.09;47.88;100472.73;1728437;83;21367;-65
2021/08/06 03:13:19;;;;;;;8.93;1.80;;;;;;;22.15;47.79;100474.56;1755827;81;21312;-67
2021/08/06 03:15:53;;;;;;;3.33;1.50;;;;;;;22.18;47.47;100480.00;1769516;81;21296;-67
2021/08/06 03:18:26;;;;;;;8.15;1.77;;;;;;;22.17;47.48;100468.51;1769043;81;21260;-67
2021/08/06 03:20:59;;;;;;;6.85;1.75;;;;;;;22.18;47.41;100464.83;1774901;81;21142;-67
2021/08/06 03:23:34;;;;;;;7.35;1.70;;;;;;;22.22;47.38;100463.89;1768595;81;21293;-67
2021/08/06 03:26:07;;;;;;;;;;;;;;;22.27;47.19;100463.59;1769798;81;21201;-67
2021/08/06 03:28:41;;;;;;;4.22;1.45;;;;;;;22.35;46.99;100463.39;1759051;81;20249;-69
2021/08/06 03:31:14;;;;;;;4.30;1.35;;;;;;;22.44;46.85;100464.80;1769596;81;21359;-65
2021/08/06 03:33:48;;;;;;;4.10;1.35;;;;;;;22.60;46.43;100463.53;1773515;81;21335;-65
2021/08/06 03:36:22;;;;;;;7.00;1.40;;;;;;;22.76;45.98;100461.77;1770160;81;21237;-66
2021/08/06 03:38:56;;;;;;;6.12;1.50;;;;;;;22.93;45.60;100454.14;1770017;81;21277;-66
2021/08/06 03:41:30;;;;;;;3.08;1.30;;;;;;;23.11;45.44;100441.73;1758992;81;21252;-66
2021/08/06 03:44:04;;;;;;;5.22;1.42;;;;;;;23.30;44.92;100447.48;1770109;81;21826;-70
2021/08/06 03:46:36;;;;;;;;;;;;;;;23.48;44.41;100438.77;1772283;79;21284;-69
2021/08/06 03:49:09;;;;;;;7.42;1.70;;;;;;;23.75;44.13;100447.43;1769740;81;20192;-70
2021/08/06 03:51:42;;;;;;;;;;;;;;;24.21;43.35;100441.23;1771492;80;21289;-71
2021/08/06 03:54:15;;;;;;;7.60;1.87;;;;;;;24.84;42.14;100443.69;1727168;83;20236;-71
2021/08/06 03:56:48;;;;;;;;;;;;;;;25.38;41.06;100433.70;1734407;81;21221;-72
2021/08/06 03:59:21;;;;;;;4.83;1.40;;;;;;;25.91;40.24;100438.28;1770806;81;20169;-73
2021/08/06 04:01:54;;;;;;;3.37;1.35;;;;;;;26.43;39.18;100440.08;1767586;81;21233;-71
2021/08/06 04:04:28;;;;;;;5.08;1.67;;;;;;;26.87;37.82;100438.61;1729640;81;21220;-73
2021/08/06 04:07:01;;;;;;;6.95;1.67;;;;;;;27.24;37.57;100431.84;1728464;83;21664;-71
2021/08/06 04:09:34;;;;;;;;;;;;;;;27.80;36.79;100440.37;1751409;82;21208;-72
2021/08/06 04:12:08;;;;;;;8.25;2.40;;;;;;;28.32;35.67;100441.49;1760164;81;20199;-70
2021/08/06 04:14:41;;;;;;;4.72;1.90;;;;;;;28.74;34.79;100429.69;1765660;80;21362;-71
2021/08/06 04:17:15;;;;;;;3.75;1.80;;;;;;;29.28;34.08;100430.89;1716475;83;21350;-70
2021/08/06 04:19:48;;;;;;;5.70;1.95;;;;;;;29.77;33.04;100437.06;1741137;81;21502;-69
2021/08/06 04:22:21;;;;;;;10.32;2.27;;;;;;;30.29;32.42;100435.81;1749821;81;21247;-76
2021/08/06 04:24:54;;;;;;;9.70;1.77;;;;;;;30.88;31.42;100441.80;1744395;81;21891;-73
2021/08/06 04:27:27;;;;;;;;;;;;;;;31.39;30.14;100443.33;1748078;80;21521;-74
2021/08/06 04:30:00;;;;;;;5.47;1.57;;;;;;;31.81;29.50;100438.55;1724072;83;20194;-76
2021/08/06 04:32:33;;;;;;;5.33;1.67;;;;;;;32.24;28.47;100440.71;1695648;84;21208;-73
2021/08/06 04:35:07;;;;;;;6.28;1.47;;;;;;;32.52;28.00;100443.38;1702514;83;21157;-74
2021/08/06 04:37:50;;;;;;;6.25;1.27;;;;;;;32.82;27.65;100448.67;1700959;84;21383;-74
2021/08/06 04:40:25;;;;;;;8.28;1.75;;;;;;;33.16;27.12;100440.14;1700223;84;21276;-73
2021/08/06 04:42:59;;;;;;;11.93;2.12;;;;;;;33.52;26.62;100438.00;1731862;81;21141;-74
2021/08/06 04:45:32;;;;;;;3.60;1.60;;;;;;;33.92;26.30;100440.95;1735055;83;21187;-73
2021/08/06 04:48:05;;;;;;;;;;;;;;;34.31;25.47;100453.12;1733043;83;21233;-73
2021/08/06 04:50:38;;;;;;;;;;;;;;;34.52;25.18;100449.89;1755908;80;20221;-77
2021/08/06 04:53:12;;;;;;;3.70;1.22;;;;;;;34.72;25.21;100447.52;1757402;80;20315;-74
2021/08/06 04:59:57;;;;;;;9.53;1.60;;;;;;;35.39;24.09;100446.91;1755029;81;21287;-71
2021/08/06 05:02:30;;;;;;;6.75;1.52;;;;;;;35.66;23.40;100440.23;1756803;81;21290;-73
2021/08/06 05:09:00;;;;;;;7.87;1.47;;;;;;;35.78;23.44;100438.67;1755009;81;20204;-68
2021/08/06 05:11:35;;;;;;;4.65;1.20;;;;;;;36.19;22.78;100442.07;1754531;81;21318;-69
2021/08/06 05:14:08;;;;;;;5.53;1.40;;;;;;;36.26;22.50;100450.11;1753991;81;21342;-68
2021/08/06 05:16:42;;;;;;;11.80;1.70;;;;;;;36.32;22.27;100452.20;1754247;81;21195;-70
2021/08/06 05:19:16;;;;;;;4.83;1.37;;;;;;;36.33;22.48;100448.34;1754191;81;21181;-74
2021/08/06 05:21:49;;;;;;;2.52;1.30;;;;;;;36.57;22.66;100458.55;1754417;81;21461;-73
2021/08/06 05:24:23;;;;;;;3.80;1.50;;;;;;;36.94;21.83;100460.28;1755838;81;21338;-68
2021/08/06 05:26:56;;;;;;;3.25;1.27;;;;;;;37.12;21.89;100466.97;1765372;81;22028;-71
2021/08/06 05:29:30;;;;;;;3.87;1.32;;;;;;;37.48;21.20;100459.34;1763131;81;21620;-69
2021/08/06 05:32:04;;;;;;;7.17;1.22;;;;;;;37.61;21.05;100455.22;1761757;81;21330;-71
2021/08/06 05:34:39;;;;;;;8.00;1.57;;;;;;;37.76;20.89;100458.14;1748902;81;21326;-68
2021/08/06 05:37:13;;;;;;;8.03;1.40;;;;;;;37.93;20.78;100454.16;1761893;81;22127;-70
2021/08/06 05:39:46;;;;;;;6.92;1.22;;;;;;;38.11;20.39;100448.23;1763202;81;21366;-71
2021/08/06 05:42:20;;;;;;;4.15;1.50;;;;;;;38.21;20.19;100456.99;1762113;81;21557;-70
2021/08/06 05:44:53;;;;;;;7.12;1.10;;;;;;;38.22;19.99;100460.51;1763238;81;21256;-72
2021/08/06 05:55:46;;;;;;;5.30;1.27;;;;;;;38.05;20.23;100465.33;1763472;81;21200;-71
2021/08/06 05:58:20;;;;;;;7.62;1.45;;;;;;;38.10;19.89;100444.69;1766791;81;21304;-76
2021/08/06 06:00:53;;;;;;;8.78;1.52;;;;;;;38.19;20.03;100444.17;1766388;81;21310;-75
2021/08/06 06:03:32;;;;;;;6.92;1.40;;;;;;;38.48;19.81;100455.98;1764204;81;21323;-74
2021/08/06 06:06:09;;;;;;;2.17;1.27;;;;;;;38.56;19.65;100450.30;1763378;81;21184;-72
2021/08/06 06:08:43;;;;;;;3.92;1.17;;;;;;;38.56;19.58;100453.04;1763613;81;21505;-72
2021/08/06 06:11:16;;;;;;;3.20;1.27;;;;;;;38.66;19.59;100433.61;1763026;81;21322;-69
2021/08/06 06:13:49;;;;;;;4.28;1.17;;;;;;;38.90;19.40;100444.41;1763871;81;21748;-72
2021/08/06 06:16:22;;;;;;;6.30;1.75;;;;;;;39.02;19.17;100434.19;1765075;81;21462;-74
2021/08/06 06:18:56;;;;;;;8.70;1.70;;;;;;;39.16;19.25;100436.25;1763248;81;21275;-72
2021/08/06 06:21:30;;;;;;;2.10;1.17;;;;;;;39.34;19.08;100430.22;1765078;81;21184;-72
2021/08/06 06:28:13;;;;;;;6.53;1.22;;;;;;;39.30;19.11;100423.20;1770032;81;21155;-71
2021/08/06 06:34:58;;;;;;;11.88;2.10;;;;;;;39.80;19.13;100398.00;1770720;81;21555;-71
2021/08/06 06:37:31;;;;;;;6.87;1.98;;;;;;;40.17;18.51;100409.02;1767793;81;21220;-78
2021/08/06 06:40:05;;;;;;;3.33;1.50;;;;;;;40.26;18.61;100412.56;1770765;81;21283;-74
2021/08/06 06:42:39;;;;;;;2.92;1.30;;;;;;;40.48;18.50;100432.66;1769619;81;21306;-72
2021/08/06 06:45:14;;;;;;;7.75;1.40;;;;;;;40.62;18.43;100408.52;1771105;81;21326;-71
2021/08/06 06:47:51;;;;;;;6.47;1.52;;;;;;;40.82;18.20;100399.49;1771654;81;21338;-69
2021/08/06 06:50:27;;;;;;;6.80;1.70;;;;;;;40.99;18.13;100396.09;1768646;81;21160;-69
2021/08/06 06:53:01;;;;;;;7.75;1.87;;;;;;;41.30;18.11;100394.89;1768467;81;21477;-68
2021/08/06 06:55:44;;;;;;;7.95;1.60;;;;;;;41.81;17.49;100411.47;1768867;81;21243;-72
2021/08/06 06:58:41;;;;;;;3.05;1.32;;;;;;;42.06;17.21;100405.66;1770038;81;21219;-75
2021/08/06 07:01:14;;;;;;;7.67;1.60;;;;;;;42.20;17.09;100389.65;1770522;81;21283;-73
2021/08/06 07:03:48;;;;;;;7.40;1.92;;;;;;;42.31;17.05;100394.14;1769040;81;21223;-72
2021/08/06 07:06:22;;;;;;;6.15;1.45;;;;;;;42.46;17.11;100387.14;1770436;81;21294;-70
2021/08/06 07:08:56;;;;;;;5.70;1.47;;;;;;;42.72;16.70;100385.64;1769949;81;21374;-74
2021/08/06 07:11:30;;;;;;;5.08;1.62;;;;;;;42.73;16.49;100382.32;1774282;81;21430;-73
2021/08/06 07:14:03;;;;;;;2.75;1.37;;;;;;;42.56;16.76;100382.01;1769316;81;21905;-74
2021/08/06 07:20:32;;;;;;;3.95;1.50;;;;;;;42.81;16.56;100378.05;1768667;81;21164;-76
2021/08/06 07:23:05;;;;;;;4.40;1.75;;;;;;;42.78;16.48;100371.04;1769149;81;22132;-74
2021/08/06 07:25:39;;;;;;;7.87;1.70;;;;;;;42.98;16.39;100374.80;1770985;81;21485;-77
2021/08/06 07:28:14;;;;;;;6.47;1.70;;;;;;;43.44;16.23;100365.92;1766513;81;21554;-70
2021/08/06 07:30:48;;;;;;;5.00;1.70;;;;;;;43.73;15.66;100376.59;1759678;81;21185;-75
2021/08/06 07:33:21;;;;;;;4.85;2.00;;;;;;;43.68;15.94;100365.81;1758030;81;21300;-71
2021/08/06 07:40:09;;;;;;;9.23;2.00;;;;;;;44.47;15.36;100345.33;1759962;81;21779;-69
2021/08/06 07:42:42;;;;;;;5.40;2.10;;;;;;;44.85;15.03;100344.59;1757376;81;21382;-72
2021/08/06 07:45:16;;;;;;;4.03;1.40;;;;;;;44.93;14.88;100344.94;1757386;81;21249;-70
2021/08/06 07:47:51;;;;;;;5.28;1.70;;;;;;;44.75;14.96;100344.56;1757782;81;21358;-76
2021/08/06 07:50:24;;;;;;;23.92;3.50;;;;;;;44.50;15.19;100342.43;1760326;81;21291;-70
2021/08/06 07:52:58;;;;;;;13.60;2.00;;;;;;;44.30;15.51;100341.55;1735765;81;21322;-75
2021/08/06 07:55:33;;;;;;;7.85;2.22;;;;;;;44.26;15.52;100337.11;1757694;81;21291;-72
2021/08/06 07:58:06;;;;;;;6.05;1.80;;;;;;;44.11;15.60;100320.23;1761405;81;21295;-70
2021/08/06 08:00:41;;;;;;;5.28;1.85;;;;;;;43.93;15.85;100332.75;1759882;81;21284;-68
2021/08/06 08:03:16;;;;;;;12.55;2.37;;;;;;;43.83;16.18;100353.19;1758311;81;21315;-68
2021/08/06 08:05:50;;;;;;;10.25;2.15;;;;;;;43.63;16.29;100335.71;1760418;81;22075;-71
2021/08/06 08:08:23;;;;;;;4.15;1.77;;;;;;;43.46;16.58;100341.55;1759501;81;22090;-68
2021/08/06 08:10:56;;;;;;;3.87;1.75;;;;;;;43.43;16.63;100340.88;1757683;81;21168;-67
2021/08/06 08:13:32;;;;;;;9.53;2.45;;;;;;;43.31;16.52;100340.94;1757350;81;21252;-72
2021/08/06 08:16:06;;;;;;;6.78;1.87;;;;;;;42.79;16.90;100334.10;1758064;81;21196;-71
2021/08/06 08:18:41;;;;;;;4.65;2.00;;;;;;;42.43;17.45;100350.09;1756593;81;21188;-70
2021/08/06 08:21:16;;;;;;;17.07;2.45;;;;;;;42.06;17.86;100339.64;1757382;81;21475;-71
2021/08/06 08:23:49;;;;;;;2.33;1.45;;;;;;;42.07;18.09;100331.63;1760664;81;21278;-67
2021/08/06 08:26:23;;;;;;;8.78;2.08;;;;;;;42.18;17.55;100344.40;1757151;81;21205;-73
2021/08/06 08:28:57;;;;;;;2.25;1.60;;;;;;;42.15;17.80;100343.70;1757212;81;21311;-73
2021/08/06 08:31:30;;;;;;;4.37;1.50;;;;;;;42.07;17.76;100328.08;1757576;81;21302;-71
2021/08/06 08:34:04;;;;;;;19.23;2.83;;;;;;;42.00;17.88;100330.03;1757113;81;22054;-73
2021/08/06 08:36:37;;;;;;;2.87;1.70;;;;;;;41.72;18.00;100321.41;1757811;81;21387;-74
2021/08/06 08:39:11;;;;;;;16.60;2.22;;;;;;;41.55;18.33;100322.39;1757632;81;21385;-77
2021/08/06 08:41:45;;;;;;;4.67;2.00;;;;;;;41.54;18.12;100332.58;1759965;81;21165;-71
2021/08/06 08:44:18;;;;;;;4.55;2.00;;;;;;;41.36;18.43;100334.48;1736127;81;21306;-71
2021/08/06 08:46:52;;;;;;;3.42;1.75;;;;;;;41.18;18.81;100323.41;1761425;81;21988;-74
2021/08/06 08:49:32;;;;;;;4.50;2.20;;;;;;;41.18;18.72;100321.44;1757911;81;21287;-77
2021/08/06 08:52:07;;;;;;;5.33;1.90;;;;;;;40.99;18.89;100335.68;1740271;81;21279;-77
2021/08/06 08:54:40;;;;;;;8.90;2.12;;;;;;;40.52;19.57;100320.52;1759501;81;21554;-79
2021/08/06 08:57:13;;;;;;;7.10;2.52;;;;;;;40.23;19.49;100314.47;1759966;81;21697;-73
2021/08/06 08:59:48;;;;;;;7.33;2.27;;;;;;;40.19;20.02;100321.76;1735375;81;21213;-70
2021/08/06 09:02:24;;;;;;;4.42;1.72;;;;;;;40.16;19.88;100330.64;1757643;81;21307;-67
2021/08/06 09:05:13;;;;;;;24.70;3.37;;;;;;;39.88;20.04;100338.24;1757038;81;21189;-70
2021/08/06 09:07:49;;;;;;;6.78;2.05;;;;;;;39.34;20.65;100331.61;1758297;81;21303;-72
2021/08/06 09:10:29;;;;;;;6.75;2.12;;;;;;;38.91;21.41;100332.95;1759589;81;21209;-73
2021/08/06 09:13:16;;;;;;;7.50;2.00;;;;;;;38.66;21.72;100322.23;1758402;81;21620;-73
2021/08/06 09:15:53;;;;;;;4.83;2.15;;;;;;;38.50;22.03;100342.98;1688753;81;21549;-66
2021/08/06 09:18:39;;;;;;;6.72;2.30;;;;;;;38.18;22.42;100347.42;1756058;81;21197;-69
2021/08/06 09:21:21;;;;;;;10.80;2.27;;;;;;;37.84;23.04;100343.17;1756394;81;21188;-69
2021/08/06 09:23:58;;;;;;;11.25;2.20;;;;;;;37.43;23.50;100341.48;1757991;81;21334;-68
2021/08/06 09:30:36;;;;;;;;;;;;;;;36.85;24.37;100340.66;1764125;81;21991;-69
2021/08/06 09:33:09;;;;;;;4.22;1.80;;;;;;;36.51;24.59;100359.41;1770055;81;20404;-68
2021/08/06 09:39:54;;;;;;;2.87;1.25;;;;;;;35.47;26.11;100347.66;1768453;81;21475;-69
2021/08/06 09:42:32;;;;;;;17.30;10.28;;;;;;;35.41;26.79;100349.41;1768423;81;21362;-68
2021/08/06 09:45:10;;;;;;;6.47;3.30;;;;;;;35.37;27.06;100355.20;1768127;81;21318;-69
2021/08/06 09:47:46;;;;;;;9.18;4.42;;;;;;;35.38;26.76;100337.20;1768586;81;22124;-69
2021/08/06 09:50:21;;;;;;;21.73;9.70;;;;;;;35.41;26.91;100339.88;1768454;81;21219;-69
2021/08/06 09:52:54;;;;;;;6.60;3.20;;;;;;;35.40;27.50;100342.34;1768540;81;21180;-69
2021/08/06 09:55:31;;;;;;;9.80;5.78;;;;;;;35.45;27.59;100360.77;1768234;81;21282;-68
2021/08/06 09:58:14;;;;;;;14.43;2.60;;;;;;;35.36;27.96;100343.50;1772086;81;21125;-69
2021/08/06 10:05:04;;;;;;;6.00;2.27;;;;;;;34.96;27.96;100346.28;1768584;81;21128;-68
2021/08/06 10:07:46;;;;;;;4.83;2.40;;;;;;;34.53;28.57;100344.16;1768507;81;21168;-70
2021/08/06 10:10:18;;;;;;;3.37;1.95;;;;;;;34.42;28.53;100334.47;1768365;81;21204;-71
2021/08/06 10:12:52;;;;;;;5.05;2.45;;;;;;;34.47;29.00;100333.59;1768464;81;21180;-67
2021/08/06 10:15:26;;;;;;;5.58;1.98;;;;;;;34.53;28.53;100327.03;1768243;81;21267;-71
2021/08/06 10:22:10;;;;;;;4.42;1.90;;;;;;;34.36;28.41;100353.86;1772656;81;21156;-73
2021/08/06 10:24:46;;;;;;;3.12;1.87;;;;;;;34.21;29.27;100333.64;1771049;81;21373;-70
2021/08/06 10:27:25;;;;;;;6.95;2.27;;;;;;;34.37;28.71;100350.02;1767069;81;21287;-70
2021/08/06 10:30:02;;;;;;;4.17;2.30;;;;;;;34.37;28.76;100341.33;1768813;81;21474;-68
2021/08/06 10:32:36;;;;;;;9.98;2.12;;;;;;;34.26;28.37;100344.45;1757505;81;21231;-69
2021/08/06 10:35:18;;;;;;;4.75;2.05;;;;;;;34.07;28.94;100328.66;1758001;81;22010;-69
2021/08/06 10:38:06;;;;;;;4.28;1.77;;;;;;;33.90;28.92;100325.81;1756436;81;21232;-68
2021/08/06 10:40:49;;;;;;;6.50;2.17;;;;;;;33.77;29.44;100323.77;1757466;81;21176;-70
2021/08/06 10:43:37;;;;;;;5.45;1.92;;;;;;;33.63;29.59;100354.05;1757839;81;21176;-69
2021/08/06 10:46:11;;;;;;;5.42;2.02;;;;;;;33.34;29.64;100317.11;1761336;81;21490;-66
2021/08/06 10:48:50;;;;;;;3.70;1.87;;;;;;;33.17;29.87;100325.08;1759008;81;21300;-70
2021/08/06 10:51:27;;;;;;;7.90;1.90;;;;;;;33.15;29.61;100298.00;1757074;81;21891;-68
2021/08/06 10:54:09;;;;;;;6.37;2.20;;;;;;;33.15;29.33;100297.42;1757646;81;21643;-69
2021/08/06 10:56:44;;;;;;;4.37;1.75;;;;;;;33.13;29.33;100292.84;1756918;81;21306;-70
2021/08/06 10:59:23;;;;;;;15.03;2.37;;;;;;;33.15;29.49;100283.86;1757610;81;21299;-66
2021/08/06 11:01:52;;;;;;;3.72;1.72;;;;;;;33.21;29.54;100303.09;1756924;81;21306;-69
2021/08/06 11:04:32;;;;;;;4.28;1.75;;;;;;;33.21;28.49;100285.45;1757434;81;21334;-69
2021/08/06 11:07:06;;;;;;;6.28;2.00;;;;;;;33.11;28.56;100296.38;1757076;81;21307;-67
2021/08/06 11:09:41;;;;;;;5.40;1.60;;;;;;;33.01;28.61;100276.08;1739816;81;21114;-66
2021/08/06 11:12:15;;;;;;;8.10;2.02;;;;;;;32.97;28.35;100276.39;1762858;81;21196;-70
2021/08/06 11:14:50;;;;;;;6.00;2.10;;;;;;;32.92;28.43;100284.56;1731118;81;21236;-68
2021/08/06 11:17:26;;;;;;;11.38;2.00;;;;;;;32.90;28.20;100266.41;1756907;81;21333;-69
2021/08/06 11:20:11;;;;;;;5.03;1.80;;;;;;;32.91;28.30;100263.16;1736670;81;21164;-68
2021/08/06 11:22:49;;;;;;;6.78;1.80;;;;;;;32.98;28.04;100258.22;1756936;81;21310;-68
2021/08/06 11:25:25;;;;;;;5.35;1.67;;;;;;;33.02;27.53;100268.79;1757741;81;21291;-67
2021/08/06 11:28:00;;;;;;;5.47;1.70;;;;;;;33.06;27.37;100255.73;1756783;81;21306;-70
2021/08/06 11:30:36;;;;;;;5.90;1.90;;;;;;;33.08;27.14;100277.14;1757706;81;21292;-68
2021/08/06 11:33:10;;;;;;;10.40;2.10;;;;;;;33.04;26.67;100258.46;1757071;81;21296;-68
2021/08/06 11:35:46;;;;;;;2.90;1.77;;;;;;;32.99;26.82;100270.67;1762565;81;21185;-69
2021/08/06 11:38:23;;;;;;;7.67;1.82;;;;;;;32.99;26.86;100251.69;1756501;81;22094;-69
2021/08/06 11:40:57;;;;;;;6.95;1.80;;;;;;;32.93;27.14;100252.83;1757930;81;21222;-67
2021/08/06 11:43:32;;;;;;;3.75;1.80;;;;;;;32.90;27.17;100266.41;1756566;81;21403;-71
2021/08/06 11:46:11;;;;;;;6.60;2.35;;;;;;;32.90;27.23;100238.48;1737057;81;21338;-70
2021/08/06 11:48:59;;;;;;;6.85;2.05;;;;;;;32.91;26.82;100254.45;1758534;81;21366;-69
2021/08/06 11:51:32;;;;;;;6.85;1.62;;;;;;;32.92;27.21;100224.08;1757515;81;21310;-69
2021/08/06 11:54:10;;;;;;;25.60;3.20;;;;;;;32.95;26.48;100224.34;1758339;81;21785;-68
2021/08/06 11:56:47;;;;;;;8.90;1.95;;;;;;;33.03;26.42;100228.38;1757703;81;21365;-71
2021/08/06 11:59:20;;;;;;;9.73;2.17;;;;;;;33.03;26.43;100208.04;1760702;81;21311;-68
2021/08/06 12:02:21;;;;;;;19.70;2.40;;;;;;;33.00;26.87;100231.08;1757823;81;21282;-71
2021/08/06 12:04:55;;;;;;;6.58;1.67;;;;;;;32.98;26.48;100234.59;1746976;81;21294;-69
2021/08/06 12:07:28;;;;;;;9.75;1.95;;;;;;;32.94;26.64;100206.44;1758894;81;21161;-69
2021/08/06 12:10:02;;;;;;;8.38;2.33;;;;;;;32.92;26.57;100214.05;1757617;81;21299;-70
2021/08/06 12:12:36;;;;;;;47.08;4.62;;;;;;;32.86;26.75;100201.64;1756215;81;21314;-69
2021/08/06 12:15:26;;;;;;;9.13;1.55;;;;;;;32.83;26.50;100207.63;1756427;81;22170;-71
2021/08/06 12:22:12;;;;;;;2.85;1.87;;;;;;;32.73;27.08;100242.94;1760707;81;21101;-69
2021/08/06 12:24:44;;;;;;;14.68;2.00;;;;;;;32.68;27.06;100226.70;1756665;81;21306;-68
2021/08/06 12:31:29;;;;;;;9.00;1.98;;;;;;;32.70;26.68;100214.24;1757461;81;21400;-69
2021/08/06 12:34:08;;;;;;;26.73;3.12;;;;;;;32.59;26.85;100195.88;1761790;81;21247;-68
2021/08/06 12:40:51;;;;;;;4.33;1.50;;;;;;;32.52;27.41;100201.62;1767270;81;21119;-68
2021/08/06 12:47:58;;;;;;;9.05;1.80;;;;;;;32.46;27.41;100168.82;1771427;81;21120;-68
2021/08/06 12:50:31;;;;;;;4.08;1.60;;;;;;;32.38;27.74;100161.31;1768381;81;22002;-68
2021/08/06 12:53:10;;;;;;;7.28;2.05;;;;;;;32.40;27.90;100155.59;1768488;81;21326;-66
2021/08/06 12:59:54;;;;;;;7.65;2.00;;;;;;;32.53;27.35;100167.17;1767119;81;21164;-64
2021/08/06 13:02:27;;;;;;;29.98;3.10;;;;;;;32.55;27.41;100192.12;1761043;81;21327;-69
2021/08/06 13:05:05;;;;;;;21.65;2.60;;;;;;;32.56;27.88;100155.23;1767495;81;21199;-65
2021/08/06 13:07:38;;;;;;;15.18;2.80;;;;;;;32.59;27.73;100189.09;1768605;81;21434;-65
2021/08/06 13:10:30;;;;;;;6.95;2.10;;;;;;;32.60;27.19;100187.45;1771373;81;21303;-68
2021/08/06 13:13:04;;;;;;;11.63;2.70;;;;;;;32.58;26.95;100163.89;1767191;80;21415;-66
2021/08/06 13:15:37;;;;;;;21.45;3.15;;;;;;;32.52;26.67;100154.19;1768607;81;21696;-63
2021/08/06 13:18:10;;;;;;;;;;;;;;;32.51;26.51;100172.88;1771021;81;21472;-65